Laneburg, Arkansas
Current Conditions -  °F | °C
As of 8:56 AM on Wednesday 22 Oct 2014 (Local Time) from KADF Reporting Station
Clear Clear  
Wind Chill: 57°   Ceiling: Unl
Heat Index: 57°   Visibility: 10mi
Dew Point: 53°   Wind: 7mph
Humidity: 87%   Direction: 40°NE
Pressure: 30.22"   Gusts: NA
Location:  33.69°N, 93.35°W
Report Text: KADF 221356Z AUTO 04006KT 10SM CLR 14/12 A3022 RMK AO2 T01380116 SLP246
Loading
Personal Weather Stations






























Interactive Weather Map
Tropical Storm Tracking
New forecast layout! Learn more

10-Day Weather Forecast

Advertisements
Track Severe Weather on mobile